createdAt,value
2022-08-22T00:00:43.714Z,55.14
2022-08-22T00:02:59.712Z,53.33
2022-08-22T00:06:45.967Z,55.14
2022-08-22T00:12:59.065Z,55.12
2022-08-22T00:19:06.097Z,54.89
2022-08-22T00:25:25.783Z,54.73
2022-08-22T00:31:33.151Z,54.64
2022-08-22T00:37:41.682Z,54.66
2022-08-22T00:43:39.278Z,54.74
2022-08-22T00:49:49.491Z,54.67
2022-08-22T00:56:02.307Z,54.95
2022-08-22T01:02:04.826Z,55.05
2022-08-22T01:08:11.621Z,55.37
2022-08-22T01:14:12.205Z,55.29
2022-08-22T01:20:14.916Z,55.59
2022-08-22T01:26:17.332Z,55.60
2022-08-22T01:32:23.414Z,55.68
2022-08-22T01:38:30.687Z,55.95
2022-08-22T01:44:32.940Z,56.08
2022-08-22T01:50:35.704Z,56.51
2022-08-22T01:56:38.192Z,56.34
2022-08-22T02:02:44.735Z,56.16
2022-08-22T02:08:47.204Z,56.03
2022-08-22T02:14:54.243Z,55.78
2022-08-22T02:21:01.518Z,55.39
2022-08-22T02:27:04.446Z,55.21
2022-08-22T02:33:15.893Z,55.15
2022-08-22T02:39:19.917Z,55.28
2022-08-22T02:45:23.798Z,55.38
2022-08-22T02:51:27.711Z,55.51
2022-08-22T02:57:39.481Z,55.45
2022-08-22T03:03:46.453Z,55.39
2022-08-22T03:09:56.601Z,55.41
2022-08-22T03:16:06.285Z,55.34
2022-08-22T03:22:10.252Z,55.15
2022-08-22T03:28:32.585Z,55.13
2022-08-22T03:34:34.739Z,55.07
2022-08-22T03:40:38.820Z,55.29
2022-08-22T03:46:58.184Z,55.23
2022-08-22T03:53:00.607Z,55.11
2022-08-22T03:59:19.794Z,55.43
2022-08-22T04:05:22.707Z,55.55
2022-08-22T04:11:31.303Z,55.84
2022-08-22T04:17:46.154Z,56.03
2022-08-22T04:23:48.605Z,56.18
2022-08-22T04:29:58.632Z,56.53
2022-08-22T04:36:08.386Z,56.46
2022-08-22T04:42:30.781Z,56.38
2022-08-22T04:48:32.172Z,56.17
2022-08-22T04:54:44.968Z,56.10
2022-08-22T05:00:49.026Z,55.84
2022-08-22T05:06:51.807Z,56.07
2022-08-22T05:12:55.758Z,56.33
2022-08-22T05:18:59.780Z,56.25
2022-08-22T05:25:03.978Z,56.60
2022-08-22T05:31:08.138Z,56.56
2022-08-22T05:37:12.299Z,56.53
2022-08-22T05:43:16.245Z,56.69
2022-08-22T05:49:20.267Z,56.91
2022-08-22T05:55:30.264Z,57.03
2022-08-22T06:01:27.342Z,56.90
2022-08-22T06:07:31.499Z,56.78
2022-08-22T06:13:41.750Z,56.50
2022-08-22T06:19:46.106Z,56.39
2022-08-22T06:25:52.891Z,56.20
2022-08-22T06:32:00.337Z,56.08
2022-08-22T06:38:04.228Z,56.03
2022-08-22T06:44:08.178Z,56.14
2022-08-22T06:50:13.544Z,56.10
2022-08-22T06:56:17.876Z,55.97
2022-08-22T07:02:33.889Z,56.04
2022-08-22T07:08:39.268Z,55.88
2022-08-22T07:14:43.440Z,55.91
2022-08-22T07:20:47.652Z,55.83
2022-08-22T07:26:51.710Z,55.72
2022-08-22T07:32:52.611Z,55.74
2022-08-22T07:38:56.709Z,55.50
2022-08-22T07:45:01.019Z,55.41
2022-08-22T07:51:05.020Z,55.14
2022-08-22T07:57:08.974Z,54.91
2022-08-22T08:03:11.691Z,54.69
2022-08-22T08:09:00.855Z,54.67
2022-08-22T08:15:04.795Z,54.64
2022-08-22T08:21:08.632Z,54.68
2022-08-22T08:27:10.712Z,54.68
2022-08-22T08:33:24.975Z,54.78
2022-08-22T08:39:24.049Z,54.61
2022-08-22T08:45:22.132Z,54.70
2022-08-22T08:51:18.648Z,54.47
2022-08-22T08:57:13.303Z,54.55
2022-08-22T09:03:30.809Z,54.40
2022-08-22T09:09:33.900Z,54.36
2022-08-22T09:15:55.055Z,54.27
2022-08-22T09:22:22.184Z,54.34
2022-08-22T09:28:29.740Z,54.28
2022-08-22T09:34:33.879Z,54.36
2022-08-22T09:40:30.427Z,54.34
2022-08-22T09:46:37.241Z,54.38
2022-08-22T09:52:50.583Z,54.39
2022-08-22T09:58:54.989Z,54.43
2022-08-22T10:04:58.772Z,54.32
2022-08-22T10:11:08.636Z,54.36
2022-08-22T10:17:22.576Z,54.39
2022-08-22T10:23:29.648Z,54.29
2022-08-22T10:29:39.761Z,54.38
2022-08-22T10:35:49.423Z,54.47
2022-08-22T10:41:53.466Z,54.36
2022-08-22T10:48:01.228Z,54.42
2022-08-22T10:53:57.851Z,54.32
2022-08-22T11:00:03.334Z,54.38
2022-08-22T11:06:00.744Z,54.46
2022-08-22T11:12:05.336Z,54.46
2022-08-22T11:18:12.980Z,54.41
2022-08-22T11:24:30.013Z,54.33
2022-08-22T11:30:44.508Z,54.42
2022-08-22T11:37:01.893Z,54.39
2022-08-22T11:43:06.573Z,54.28
2022-08-22T11:49:25.662Z,54.06
2022-08-22T11:55:33.253Z,54.07
2022-08-22T12:01:47.880Z,53.96
2022-08-22T12:08:03.014Z,53.94
2022-08-22T12:14:10.205Z,53.95
2022-08-22T12:20:16.882Z,54.02
2022-08-22T12:26:22.151Z,53.88
2022-08-22T12:32:45.752Z,54.23
2022-08-22T12:38:48.166Z,54.27
2022-08-22T12:44:46.519Z,54.46
2022-08-22T12:50:50.563Z,54.25
2022-08-22T12:56:51.049Z,54.48
2022-08-22T13:02:52.053Z,54.18
2022-08-22T13:08:56.247Z,54.08
2022-08-22T13:14:51.185Z,54.04
2022-08-22T13:20:55.339Z,54.00
2022-08-22T13:27:03.839Z,54.03
2022-08-22T13:33:15.432Z,53.90
2022-08-22T13:39:20.556Z,53.83
2022-08-22T13:45:23.605Z,53.59
2022-08-22T13:51:16.737Z,53.46
2022-08-22T13:57:23.927Z,53.27
2022-08-22T14:03:40.503Z,52.86
2022-08-22T14:09:32.683Z,52.67
2022-08-22T14:15:44.733Z,52.37
2022-08-22T14:21:47.862Z,52.29
2022-08-22T14:27:45.522Z,52.63
2022-08-22T14:33:54.704Z,52.78
2022-08-22T14:39:55.559Z,52.65
2022-08-22T14:46:04.298Z,52.56
2022-08-22T14:52:02.618Z,52.65
2022-08-22T14:58:03.298Z,52.72
2022-08-22T15:04:18.867Z,52.79
2022-08-22T15:10:22.913Z,52.87
2022-08-22T15:16:29.965Z,52.92
2022-08-22T15:22:28.748Z,53.04
2022-08-22T15:28:33.747Z,53.05
2022-08-22T15:35:03.470Z,53.10
2022-08-22T15:41:08.067Z,53.09
2022-08-22T15:47:05.873Z,53.10
2022-08-22T15:53:06.583Z,53.19
2022-08-22T15:59:12.165Z,53.11
2022-08-22T16:05:16.271Z,53.14
2022-08-22T16:11:16.980Z,53.01
2022-08-22T16:17:17.617Z,53.08
2022-08-22T16:23:36.395Z,53.14
2022-08-22T16:29:41.583Z,53.22
2022-08-22T16:35:46.029Z,53.31
2022-08-22T16:41:42.001Z,53.19
2022-08-22T16:47:58.378Z,53.28
2022-08-22T16:54:02.813Z,53.24
2022-08-22T17:00:09.567Z,53.20
2022-08-22T17:06:13.713Z,53.21
2022-08-22T17:12:15.890Z,53.43
2022-08-22T17:18:25.764Z,53.39
2022-08-22T17:24:34.083Z,53.34
2022-08-22T17:30:41.546Z,53.47
2022-08-22T17:36:38.781Z,53.56
2022-08-22T17:42:42.842Z,53.61
2022-08-22T17:48:51.668Z,54.02
2022-08-22T17:54:55.705Z,54.09
2022-08-22T18:00:59.723Z,53.95
2022-08-22T18:07:05.638Z,53.82
2022-08-22T18:13:12.673Z,53.87
2022-08-22T18:19:25.472Z,53.74
2022-08-22T18:25:29.671Z,53.87
2022-08-22T18:31:46.155Z,53.82
2022-08-22T18:37:53.190Z,53.71
2022-08-22T18:44:00.508Z,53.72
2022-08-22T18:50:04.519Z,53.57
2022-08-22T18:56:08.659Z,53.57
2022-08-22T19:02:15.933Z,53.45
2022-08-22T19:08:29.139Z,53.41
2022-08-22T19:14:33.034Z,53.35
2022-08-22T19:20:38.525Z,53.39
2022-08-22T19:26:41.208Z,53.24
2022-08-22T19:32:45.521Z,53.18
2022-08-22T19:38:43.554Z,53.25
2022-08-22T19:44:40.309Z,53.12
2022-08-22T19:50:50.107Z,53.07
2022-08-22T19:57:06.336Z,53.16
2022-08-22T20:03:13.336Z,53.01
2022-08-22T20:09:16.108Z,53.11
2022-08-22T20:15:20.054Z,53.18
2022-08-22T20:21:17.710Z,53.15
2022-08-22T20:27:21.579Z,53.18
2022-08-22T20:33:25.509Z,53.25
2022-08-22T20:39:29.430Z,53.22
2022-08-22T20:45:33.279Z,53.25
2022-08-22T20:51:27.225Z,53.21
2022-08-22T20:57:31.231Z,53.31
2022-08-22T21:03:29.053Z,53.25
2022-08-22T21:09:31.679Z,53.24
2022-08-22T21:15:28.406Z,53.27
2022-08-22T21:21:31.099Z,53.27
2022-08-22T21:27:37.744Z,53.41
2022-08-22T21:33:41.700Z,53.37
2022-08-22T21:39:45.639Z,53.41
2022-08-22T21:45:49.735Z,53.32
2022-08-22T21:52:12.185Z,53.41
2022-08-22T21:58:30.968Z,53.17
2022-08-22T22:04:40.264Z,53.17
2022-08-22T22:10:37.101Z,53.11
2022-08-22T22:16:33.860Z,53.04
2022-08-22T22:22:38.167Z,53.08
2022-08-22T22:28:43.990Z,53.19
2022-08-22T22:34:29.570Z,53.36
2022-08-22T22:40:24.152Z,53.61
2022-08-22T22:46:19.615Z,53.75
2022-08-22T22:52:05.623Z,53.91
2022-08-22T22:58:15.554Z,54.21
2022-08-22T23:04:09.418Z,54.44
2022-08-22T23:10:13.505Z,54.80
2022-08-22T23:16:16.023Z,54.86
2022-08-22T23:22:18.806Z,54.92
2022-08-22T23:28:22.782Z,55.08
2022-08-22T23:34:16.577Z,54.98
2022-08-22T23:40:29.667Z,55.01
2022-08-22T23:46:33.645Z,55.19
2022-08-22T23:52:31.508Z,55.40
2022-08-22T23:58:35.430Z,55.82
